Airfield :
LOGIN :

Register | Disclaimer

   EN    FR    IT 

 










Legend :    VFR   Marginal VFR   IFR   Intensive IFR   Very Intensive IFR
Visi :
Ceiling :
>= 8 km
>= 3000ft
5 to 8 km
1000 to 3000 ft
1500m to 5 km
500 to 1000 ft
800 to 1500m
200 to 500 ft
< 800m
< 200 ft
Symbols :   Thunderstorms  Fog  Heavy snow  Heavy precipitations  Wind > 20 kt
SIGMETs :     Misc.  Thunderstorms  Icing  Turbulence  Mountain Waves  Volcanic Ashes






- Airport Elevation : 1900 ft
- IATA code : FEZ


GMFF - Fez Saiss

CURRENT METAR :
  • 291400Z 31006KT 280V050 CAVOK 22/08 Q1021 NOSIG

EXPIRED METARs :
  • 291330Z 30007KT 270V340 CAVOK 21/07 Q1022 NOSIG
  • 291300Z 29007KT 250V330 CAVOK 21/07 Q1022 NOSIG
  • 291230Z 31009KT 270V340 CAVOK 21/07 Q1022 NOSIG
  • 291200Z 30009KT 270V340 CAVOK 21/06 Q1023 NOSIG
  • 291130Z 29009KT 260V330 CAVOK 21/05 Q1023 NOSIG
  • 291100Z 31008KT 280V340 CAVOK 21/03 Q1023 NOSIG

TAF TAF GMFF
Valid from the 29 at 12:00 until the 01 at 18:00 UTC


291100Z 2912/0118 30008G20KT CAVOK
BECMG 2918/2920 SCT020
PROB40
TEMPO 2923/0108 VRB02KT 3000 BR BKN006



MET'MAP, your aeronautical weather chart ! - Copyright ORBIFLY December 2007 - Disclaimer

ORBIFLY MET'MAP TEAM :

Programming & Development : Alexandra Zaïnal
Concept & original design : Baudouin d'Aumeries
Assistance for programming : Marc-Olivier Méhu
Technical & hardware support : Manuel Goepfert

Contact : metmap@orbifly.com




SOURCES & CREDITS :

   NOAA